CheckWX is a tool to help pilots better visualize weather data.  It is not intended as a substitute for an official pre-flight weather briefing.

11:20:48 UTC

KRNO METAR
Reno / Tahoe International Airport
Reno, Nevada, USA
Current

26 mins ago

KRNO 171055Z 20004KT 10SM CLR 19/04 A3000 RMK AO2 SLP096 T01890044
Observed
Aug-17 @ 10:55 UTC
Wind
  • 200° at 4 KTS
Visibility
10 SM
Flight Rules
VFR
Cloud Levels
  • Clear skies
Temperature
19°C / 66°F
Dewpoint
C / 39°F
Humidity
37%
Altimeter
30" Hg
Pressure
1015.92 hPa
Previous

1 hour ago

KRNO 170955Z 17006KT 10SM CLR 19/06 A3001 RMK AO2 SLP099 T01940056
Observed
Aug-17 @ 09:55 UTC
Wind
  • 170° at 6 KTS
Visibility
10 SM
Flight Rules
VFR
Cloud Levels
  • Clear skies
Temperature
19°C / 66°F
Dewpoint
C / 43°F
Humidity
43%
Altimeter
30.01" Hg
Pressure
1016.22 hPa
Previous

2 hours ago

KRNO 170855Z 16003KT 10SM CLR 21/07 A3001 RMK AO2 SLP098 T02110072 50002
Observed
Aug-17 @ 08:55 UTC
Wind
  • 160° at 3 KTS
Visibility
10 SM
Flight Rules
VFR
Cloud Levels
  • Clear skies
Temperature
21°C / 70°F
Dewpoint
C / 45°F
Humidity
40%
Altimeter
30.01" Hg
Pressure
1016.22 hPa